sensor_id;sensor_type;location;lat;lon;timestamp;P1;durP1;ratioP1;P2;durP2;ratioP2
54428;SDS011;40337;52.978;6.310;2022-08-19T00:00:50;6.25;;;5.65;;
54428;SDS011;40337;52.978;6.310;2022-08-19T00:03:16;7.38;;;5.60;;
54428;SDS011;40337;52.978;6.310;2022-08-19T00:05:42;4.30;;;3.40;;
54428;SDS011;40337;52.978;6.310;2022-08-19T00:08:07;6.22;;;4.50;;
54428;SDS011;40337;52.978;6.310;2022-08-19T00:10:33;6.43;;;4.93;;
54428;SDS011;40337;52.978;6.310;2022-08-19T00:12:59;5.43;;;4.85;;
54428;SDS011;40337;52.978;6.310;2022-08-19T00:15:24;6.38;;;4.80;;
54428;SDS011;40337;52.978;6.310;2022-08-19T00:17:50;6.70;;;5.85;;
54428;SDS011;40337;52.978;6.310;2022-08-19T00:20:17;6.50;;;5.30;;
54428;SDS011;40337;52.978;6.310;2022-08-19T00:22:46;7.00;;;5.90;;
54428;SDS011;40337;52.978;6.310;2022-08-19T00:25:12;6.82;;;5.95;;
54428;SDS011;40337;52.978;6.310;2022-08-19T00:27:39;9.18;;;6.28;;
54428;SDS011;40337;52.978;6.310;2022-08-19T00:30:06;7.47;;;6.47;;
54428;SDS011;40337;52.978;6.310;2022-08-19T00:32:34;7.70;;;6.88;;
54428;SDS011;40337;52.978;6.310;2022-08-19T00:35:00;6.38;;;5.75;;
54428;SDS011;40337;52.978;6.310;2022-08-19T00:37:26;7.10;;;6.40;;
54428;SDS011;40337;52.978;6.310;2022-08-19T00:39:52;7.03;;;6.32;;
54428;SDS011;40337;52.978;6.310;2022-08-19T00:42:19;7.25;;;6.30;;
54428;SDS011;40337;52.978;6.310;2022-08-19T00:44:45;7.75;;;6.45;;
54428;SDS011;40337;52.978;6.310;2022-08-19T00:47:11;7.75;;;6.55;;
54428;SDS011;40337;52.978;6.310;2022-08-19T00:49:38;8.90;;;7.13;;
54428;SDS011;40337;52.978;6.310;2022-08-19T00:52:09;7.72;;;6.85;;
54428;SDS011;40337;52.978;6.310;2022-08-19T00:54:39;7.35;;;6.65;;
54428;SDS011;40337;52.978;6.310;2022-08-19T00:57:08;9.38;;;7.18;;
54428;SDS011;40337;52.978;6.310;2022-08-19T00:59:40;9.65;;;7.03;;
54428;SDS011;40337;52.978;6.310;2022-08-19T01:02:10;9.20;;;6.97;;
54428;SDS011;40337;52.978;6.310;2022-08-19T01:04:37;8.98;;;7.53;;
54428;SDS011;40337;52.978;6.310;2022-08-19T01:07:03;7.68;;;6.75;;
54428;SDS011;40337;52.978;6.310;2022-08-19T01:09:29;7.82;;;5.45;;
54428;SDS011;40337;52.978;6.310;2022-08-19T01:11:55;4.43;;;3.60;;
54428;SDS011;40337;52.978;6.310;2022-08-19T01:14:21;5.85;;;4.85;;
54428;SDS011;40337;52.978;6.310;2022-08-19T01:16:48;8.25;;;6.20;;
54428;SDS011;40337;52.978;6.310;2022-08-19T01:21:55;8.30;;;7.50;;
54428;SDS011;40337;52.978;6.310;2022-08-19T01:24:27;8.13;;;7.32;;
54428;SDS011;40337;52.978;6.310;2022-08-19T01:26:53;9.13;;;6.95;;
54428;SDS011;40337;52.978;6.310;2022-08-19T01:29:19;7.40;;;6.50;;
54428;SDS011;40337;52.978;6.310;2022-08-19T01:31:45;5.18;;;3.90;;
54428;SDS011;40337;52.978;6.310;2022-08-19T01:34:10;4.35;;;3.42;;
54428;SDS011;40337;52.978;6.310;2022-08-19T01:36:38;3.50;;;2.70;;
54428;SDS011;40337;52.978;6.310;2022-08-19T01:39:08;4.88;;;3.20;;
54428;SDS011;40337;52.978;6.310;2022-08-19T01:41:36;5.15;;;3.63;;
54428;SDS011;40337;52.978;6.310;2022-08-19T01:44:02;6.80;;;5.57;;
54428;SDS011;40337;52.978;6.310;2022-08-19T01:46:31;6.20;;;5.22;;
54428;SDS011;40337;52.978;6.310;2022-08-19T01:48:57;3.25;;;2.45;;
54428;SDS011;40337;52.978;6.310;2022-08-19T01:51:23;4.45;;;1.92;;
54428;SDS011;40337;52.978;6.310;2022-08-19T01:53:49;1.90;;;1.50;;
54428;SDS011;40337;52.978;6.310;2022-08-19T01:56:16;3.67;;;2.00;;
54428;SDS011;40337;52.978;6.310;2022-08-19T01:58:48;3.45;;;2.00;;
54428;SDS011;40337;52.978;6.310;2022-08-19T02:01:17;4.50;;;2.30;;
54428;SDS011;40337;52.978;6.310;2022-08-19T02:03:43;2.40;;;1.20;;
54428;SDS011;40337;52.978;6.310;2022-08-19T02:06:08;1.50;;;1.10;;
54428;SDS011;40337;52.978;6.310;2022-08-19T02:08:35;1.27;;;1.05;;
54428;SDS011;40337;52.978;6.310;2022-08-19T02:11:02;1.63;;;1.23;;
54428;SDS011;40337;52.978;6.310;2022-08-19T02:13:30;3.55;;;2.20;;
54428;SDS011;40337;52.978;6.310;2022-08-19T02:15:56;2.65;;;1.70;;
54428;SDS011;40337;52.978;6.310;2022-08-19T02:18:22;5.20;;;3.17;;
54428;SDS011;40337;52.978;6.310;2022-08-19T02:20:48;5.15;;;3.55;;
54428;SDS011;40337;52.978;6.310;2022-08-19T02:23:15;77.35;;;6.75;;
54428;SDS011;40337;52.978;6.310;2022-08-19T02:25:42;18.83;;;2.90;;
54428;SDS011;40337;52.978;6.310;2022-08-19T02:28:10;8.52;;;3.55;;
54428;SDS011;40337;52.978;6.310;2022-08-19T02:30:36;4.10;;;3.47;;
54428;SDS011;40337;52.978;6.310;2022-08-19T02:33:03;5.43;;;3.92;;
54428;SDS011;40337;52.978;6.310;2022-08-19T02:35:29;4.50;;;3.33;;
54428;SDS011;40337;52.978;6.310;2022-08-19T02:37:55;5.95;;;2.60;;
54428;SDS011;40337;52.978;6.310;2022-08-19T02:40:39;4.15;;;2.47;;
54428;SDS011;40337;52.978;6.310;2022-08-19T02:43:06;11.82;;;3.78;;
54428;SDS011;40337;52.978;6.310;2022-08-19T02:45:34;4.05;;;3.10;;
54428;SDS011;40337;52.978;6.310;2022-08-19T02:48:01;5.13;;;4.57;;
54428;SDS011;40337;52.978;6.310;2022-08-19T02:50:27;5.60;;;4.68;;
54428;SDS011;40337;52.978;6.310;2022-08-19T02:52:53;5.90;;;4.05;;
54428;SDS011;40337;52.978;6.310;2022-08-19T02:55:18;5.80;;;4.28;;
54428;SDS011;40337;52.978;6.310;2022-08-19T02:57:45;6.50;;;4.53;;
54428;SDS011;40337;52.978;6.310;2022-08-19T03:00:11;7.85;;;4.90;;
54428;SDS011;40337;52.978;6.310;2022-08-19T03:02:38;3.78;;;3.28;;
54428;SDS011;40337;52.978;6.310;2022-08-19T03:05:04;9.70;;;3.70;;
54428;SDS011;40337;52.978;6.310;2022-08-19T03:07:31;3.33;;;2.75;;
54428;SDS011;40337;52.978;6.310;2022-08-19T03:09:57;4.25;;;3.60;;
54428;SDS011;40337;52.978;6.310;2022-08-19T03:12:23;4.97;;;3.28;;
54428;SDS011;40337;52.978;6.310;2022-08-19T03:14:48;4.72;;;3.97;;
54428;SDS011;40337;52.978;6.310;2022-08-19T03:17:14;4.82;;;4.30;;
54428;SDS011;40337;52.978;6.310;2022-08-19T03:19:40;4.97;;;3.90;;
54428;SDS011;40337;52.978;6.310;2022-08-19T03:22:05;7.32;;;6.07;;
54428;SDS011;40337;52.978;6.310;2022-08-19T03:24:32;7.03;;;6.32;;
54428;SDS011;40337;52.978;6.310;2022-08-19T03:26:58;7.47;;;6.68;;
54428;SDS011;40337;52.978;6.310;2022-08-19T03:29:24;7.28;;;5.88;;
54428;SDS011;40337;52.978;6.310;2022-08-19T03:31:52;6.10;;;5.00;;
54428;SDS011;40337;52.978;6.310;2022-08-19T03:34:22;6.72;;;4.78;;
54428;SDS011;40337;52.978;6.310;2022-08-19T03:36:51;5.78;;;3.15;;
54428;SDS011;40337;52.978;6.310;2022-08-19T03:39:19;7.22;;;3.65;;
54428;SDS011;40337;52.978;6.310;2022-08-19T03:41:46;59.38;;;5.63;;
54428;SDS011;40337;52.978;6.310;2022-08-19T03:44:14;22.92;;;3.25;;
54428;SDS011;40337;52.978;6.310;2022-08-19T03:46:49;36.10;;;4.05;;
54428;SDS011;40337;52.978;6.310;2022-08-19T03:49:21;6.15;;;2.75;;
54428;SDS011;40337;52.978;6.310;2022-08-19T03:51:48;4.25;;;2.95;;
54428;SDS011;40337;52.978;6.310;2022-08-19T03:54:17;4.60;;;3.80;;
54428;SDS011;40337;52.978;6.310;2022-08-19T03:56:45;5.38;;;4.50;;
54428;SDS011;40337;52.978;6.310;2022-08-19T03:59:14;6.93;;;6.22;;
54428;SDS011;40337;52.978;6.310;2022-08-19T04:01:42;6.38;;;5.75;;
54428;SDS011;40337;52.978;6.310;2022-08-19T04:04:08;7.90;;;5.32;;
54428;SDS011;40337;52.978;6.310;2022-08-19T04:06:34;37.13;;;5.85;;
54428;SDS011;40337;52.978;6.310;2022-08-19T04:09:02;6.45;;;4.25;;
54428;SDS011;40337;52.978;6.310;2022-08-19T04:11:31;5.72;;;5.13;;
54428;SDS011;40337;52.978;6.310;2022-08-19T04:14:06;6.30;;;5.20;;
54428;SDS011;40337;52.978;6.310;2022-08-19T04:16:33;8.05;;;4.88;;
54428;SDS011;40337;52.978;6.310;2022-08-19T04:19:02;5.95;;;4.40;;
54428;SDS011;40337;52.978;6.310;2022-08-19T04:21:29;7.18;;;5.70;;
54428;SDS011;40337;52.978;6.310;2022-08-19T04:23:55;7.22;;;6.03;;
54428;SDS011;40337;52.978;6.310;2022-08-19T04:26:29;209.45;;;16.35;;
54428;SDS011;40337;52.978;6.310;2022-08-19T04:28:57;46.88;;;8.75;;
54428;SDS011;40337;52.978;6.310;2022-08-19T04:31:26;6.63;;;5.78;;
54428;SDS011;40337;52.978;6.310;2022-08-19T04:33:57;6.53;;;5.32;;
54428;SDS011;40337;52.978;6.310;2022-08-19T04:36:25;6.03;;;4.65;;
54428;SDS011;40337;52.978;6.310;2022-08-19T04:38:53;7.70;;;6.63;;
54428;SDS011;40337;52.978;6.310;2022-08-19T04:41:20;7.93;;;5.78;;
54428;SDS011;40337;52.978;6.310;2022-08-19T04:44:04;6.65;;;5.95;;
54428;SDS011;40337;52.978;6.310;2022-08-19T04:46:30;8.35;;;6.78;;
54428;SDS011;40337;52.978;6.310;2022-08-19T04:48:57;8.35;;;7.10;;
54428;SDS011;40337;52.978;6.310;2022-08-19T04:51:24;8.32;;;6.65;;
54428;SDS011;40337;52.978;6.310;2022-08-19T04:53:50;10.68;;;6.53;;
54428;SDS011;40337;52.978;6.310;2022-08-19T04:56:17;6.03;;;5.10;;
54428;SDS011;40337;52.978;6.310;2022-08-19T04:58:45;7.57;;;6.13;;
54428;SDS011;40337;52.978;6.310;2022-08-19T05:01:33;10.00;;;7.93;;
54428;SDS011;40337;52.978;6.310;2022-08-19T05:03:59;10.85;;;8.02;;
54428;SDS011;40337;52.978;6.310;2022-08-19T05:06:25;8.55;;;7.65;;
54428;SDS011;40337;52.978;6.310;2022-08-19T05:08:51;6.35;;;5.40;;
54428;SDS011;40337;52.978;6.310;2022-08-19T05:11:18;7.35;;;6.63;;
54428;SDS011;40337;52.978;6.310;2022-08-19T05:13:46;5.80;;;4.43;;
54428;SDS011;40337;52.978;6.310;2022-08-19T05:16:14;5.55;;;4.68;;
54428;SDS011;40337;52.978;6.310;2022-08-19T05:18:42;8.43;;;6.60;;
54428;SDS011;40337;52.978;6.310;2022-08-19T05:21:26;9.00;;;6.50;;
54428;SDS011;40337;52.978;6.310;2022-08-19T05:26:39;6.18;;;5.38;;
54428;SDS011;40337;52.978;6.310;2022-08-19T05:29:06;7.97;;;6.22;;
54428;SDS011;40337;52.978;6.310;2022-08-19T05:31:34;6.60;;;5.90;;
54428;SDS011;40337;52.978;6.310;2022-08-19T05:34:00;7.68;;;5.30;;
54428;SDS011;40337;52.978;6.310;2022-08-19T05:36:28;8.93;;;7.80;;
54428;SDS011;40337;52.978;6.310;2022-08-19T05:38:59;10.32;;;7.97;;
54428;SDS011;40337;52.978;6.310;2022-08-19T05:41:24;9.32;;;8.38;;
54428;SDS011;40337;52.978;6.310;2022-08-19T05:43:54;14.20;;;11.93;;
54428;SDS011;40337;52.978;6.310;2022-08-19T05:46:21;15.00;;;13.25;;
54428;SDS011;40337;52.978;6.310;2022-08-19T05:48:47;16.83;;;13.63;;
54428;SDS011;40337;52.978;6.310;2022-08-19T05:51:13;15.32;;;13.50;;
54428;SDS011;40337;52.978;6.310;2022-08-19T05:53:39;15.93;;;13.93;;
54428;SDS011;40337;52.978;6.310;2022-08-19T05:56:05;16.73;;;14.80;;
54428;SDS011;40337;52.978;6.310;2022-08-19T05:58:37;18.33;;;15.00;;
54428;SDS011;40337;52.978;6.310;2022-08-19T06:01:04;21.02;;;16.13;;
54428;SDS011;40337;52.978;6.310;2022-08-19T06:03:35;18.38;;;15.75;;
54428;SDS011;40337;52.978;6.310;2022-08-19T06:06:02;18.58;;;15.75;;
54428;SDS011;40337;52.978;6.310;2022-08-19T06:08:28;19.25;;;15.52;;
54428;SDS011;40337;52.978;6.310;2022-08-19T06:10:55;20.75;;;17.92;;
54428;SDS011;40337;52.978;6.310;2022-08-19T06:13:21;20.75;;;18.00;;
54428;SDS011;40337;52.978;6.310;2022-08-19T06:15:48;20.10;;;17.45;;
54428;SDS011;40337;52.978;6.310;2022-08-19T06:18:14;20.55;;;18.15;;
54428;SDS011;40337;52.978;6.310;2022-08-19T06:20:40;22.27;;;17.13;;
54428;SDS011;40337;52.978;6.310;2022-08-19T06:23:06;20.20;;;17.48;;
54428;SDS011;40337;52.978;6.310;2022-08-19T06:25:33;21.98;;;17.90;;
54428;SDS011;40337;52.978;6.310;2022-08-19T06:27:58;21.08;;;18.33;;
54428;SDS011;40337;52.978;6.310;2022-08-19T06:30:24;23.08;;;18.75;;
54428;SDS011;40337;52.978;6.310;2022-08-19T06:32:50;23.58;;;17.30;;
54428;SDS011;40337;52.978;6.310;2022-08-19T06:35:15;21.42;;;17.70;;
54428;SDS011;40337;52.978;6.310;2022-08-19T06:37:41;19.35;;;17.27;;
54428;SDS011;40337;52.978;6.310;2022-08-19T06:40:08;22.77;;;17.13;;
54428;SDS011;40337;52.978;6.310;2022-08-19T06:42:35;22.13;;;17.65;;
54428;SDS011;40337;52.978;6.310;2022-08-19T06:45:03;19.40;;;16.67;;
54428;SDS011;40337;52.978;6.310;2022-08-19T06:47:30;20.23;;;16.42;;
54428;SDS011;40337;52.978;6.310;2022-08-19T06:49:57;22.58;;;17.67;;
54428;SDS011;40337;52.978;6.310;2022-08-19T06:52:27;19.70;;;16.13;;
54428;SDS011;40337;52.978;6.310;2022-08-19T06:54:53;18.02;;;16.20;;
54428;SDS011;40337;52.978;6.310;2022-08-19T06:57:20;20.50;;;17.10;;
54428;SDS011;40337;52.978;6.310;2022-08-19T06:59:46;18.42;;;16.13;;
54428;SDS011;40337;52.978;6.310;2022-08-19T07:02:11;19.15;;;16.83;;
54428;SDS011;40337;52.978;6.310;2022-08-19T07:04:37;18.63;;;16.63;;
54428;SDS011;40337;52.978;6.310;2022-08-19T07:07:09;19.90;;;16.95;;
54428;SDS011;40337;52.978;6.310;2022-08-19T07:09:38;20.87;;;17.17;;
54428;SDS011;40337;52.978;6.310;2022-08-19T07:12:06;19.77;;;16.83;;
54428;SDS011;40337;52.978;6.310;2022-08-19T07:14:34;17.75;;;15.88;;
54428;SDS011;40337;52.978;6.310;2022-08-19T07:17:03;18.40;;;16.35;;
54428;SDS011;40337;52.978;6.310;2022-08-19T07:19:30;17.83;;;15.93;;
54428;SDS011;40337;52.978;6.310;2022-08-19T07:21:57;17.92;;;15.20;;
54428;SDS011;40337;52.978;6.310;2022-08-19T07:24:26;18.73;;;16.02;;
54428;SDS011;40337;52.978;6.310;2022-08-19T07:26:55;17.83;;;15.82;;
54428;SDS011;40337;52.978;6.310;2022-08-19T07:29:25;18.15;;;16.15;;
54428;SDS011;40337;52.978;6.310;2022-08-19T07:31:52;16.92;;;15.15;;
54428;SDS011;40337;52.978;6.310;2022-08-19T07:34:21;17.63;;;15.82;;
54428;SDS011;40337;52.978;6.310;2022-08-19T07:36:48;16.92;;;15.20;;
54428;SDS011;40337;52.978;6.310;2022-08-19T07:39:15;17.00;;;15.30;;
54428;SDS011;40337;52.978;6.310;2022-08-19T07:41:44;15.93;;;14.30;;
54428;SDS011;40337;52.978;6.310;2022-08-19T07:44:11;15.05;;;13.55;;
54428;SDS011;40337;52.978;6.310;2022-08-19T07:46:39;14.02;;;12.63;;
54428;SDS011;40337;52.978;6.310;2022-08-19T07:49:07;14.13;;;12.63;;
54428;SDS011;40337;52.978;6.310;2022-08-19T07:51:33;13.45;;;12.15;;
54428;SDS011;40337;52.978;6.310;2022-08-19T07:53:59;15.38;;;12.90;;
54428;SDS011;40337;52.978;6.310;2022-08-19T07:56:25;14.05;;;12.57;;
54428;SDS011;40337;52.978;6.310;2022-08-19T07:58:51;13.90;;;12.50;;
54428;SDS011;40337;52.978;6.310;2022-08-19T08:01:19;13.05;;;11.73;;
54428;SDS011;40337;52.978;6.310;2022-08-19T08:03:47;14.13;;;12.65;;
54428;SDS011;40337;52.978;6.310;2022-08-19T08:06:32;13.73;;;11.48;;
54428;SDS011;40337;52.978;6.310;2022-08-19T08:09:18;13.17;;;11.87;;
54428;SDS011;40337;52.978;6.310;2022-08-19T08:11:51;14.55;;;13.07;;
54428;SDS011;40337;52.978;6.310;2022-08-19T08:16:56;13.80;;;12.40;;
54428;SDS011;40337;52.978;6.310;2022-08-19T08:19:22;15.15;;;13.48;;
54428;SDS011;40337;52.978;6.310;2022-08-19T08:21:49;14.95;;;13.45;;
54428;SDS011;40337;52.978;6.310;2022-08-19T08:24:15;14.48;;;12.98;;
54428;SDS011;40337;52.978;6.310;2022-08-19T08:26:42;15.02;;;13.43;;
54428;SDS011;40337;52.978;6.310;2022-08-19T08:29:09;14.13;;;12.70;;
54428;SDS011;40337;52.978;6.310;2022-08-19T08:31:37;13.60;;;12.30;;
54428;SDS011;40337;52.978;6.310;2022-08-19T08:34:03;14.88;;;13.10;;
54428;SDS011;40337;52.978;6.310;2022-08-19T08:36:29;13.65;;;12.20;;
54428;SDS011;40337;52.978;6.310;2022-08-19T08:38:58;14.10;;;12.55;;
54428;SDS011;40337;52.978;6.310;2022-08-19T08:44:26;14.15;;;12.75;;
54428;SDS011;40337;52.978;6.310;2022-08-19T08:47:04;13.60;;;12.30;;
54428;SDS011;40337;52.978;6.310;2022-08-19T08:49:52;14.25;;;12.95;;
54428;SDS011;40337;52.978;6.310;2022-08-19T08:52:28;14.68;;;13.18;;
54428;SDS011;40337;52.978;6.310;2022-08-19T08:55:03;14.85;;;12.30;;
54428;SDS011;40337;52.978;6.310;2022-08-19T09:00:18;13.50;;;12.20;;
54428;SDS011;40337;52.978;6.310;2022-08-19T09:02:46;13.90;;;12.50;;
54428;SDS011;40337;52.978;6.310;2022-08-19T09:05:12;15.70;;;13.52;;
54428;SDS011;40337;52.978;6.310;2022-08-19T09:10:55;14.77;;;13.27;;
54428;SDS011;40337;52.978;6.310;2022-08-19T09:16:06;14.25;;;12.85;;
54428;SDS011;40337;52.978;6.310;2022-08-19T09:18:41;14.82;;;13.32;;
54428;SDS011;40337;52.978;6.310;2022-08-19T09:21:09;13.30;;;11.90;;
54428;SDS011;40337;52.978;6.310;2022-08-19T09:23:36;14.93;;;13.50;;
54428;SDS011;40337;52.978;6.310;2022-08-19T09:26:06;15.82;;;14.43;;
54428;SDS011;40337;52.978;6.310;2022-08-19T09:28:33;16.30;;;14.63;;
54428;SDS011;40337;52.978;6.310;2022-08-19T09:30:58;17.90;;;13.63;;
54428;SDS011;40337;52.978;6.310;2022-08-19T09:33:24;13.15;;;11.85;;
54428;SDS011;40337;52.978;6.310;2022-08-19T09:35:50;15.40;;;13.80;;
54428;SDS011;40337;52.978;6.310;2022-08-19T09:38:15;15.65;;;13.48;;
54428;SDS011;40337;52.978;6.310;2022-08-19T09:40:41;14.00;;;12.68;;
54428;SDS011;40337;52.978;6.310;2022-08-19T09:43:06;14.77;;;13.20;;
54428;SDS011;40337;52.978;6.310;2022-08-19T09:45:32;15.32;;;13.82;;
54428;SDS011;40337;52.978;6.310;2022-08-19T09:47:58;13.85;;;12.57;;
54428;SDS011;40337;52.978;6.310;2022-08-19T09:50:23;15.55;;;14.05;;
54428;SDS011;40337;52.978;6.310;2022-08-19T09:52:49;16.90;;;13.45;;
54428;SDS011;40337;52.978;6.310;2022-08-19T09:55:14;16.40;;;14.80;;
54428;SDS011;40337;52.978;6.310;2022-08-19T09:57:41;15.93;;;14.43;;
54428;SDS011;40337;52.978;6.310;2022-08-19T10:00:07;15.18;;;13.68;;
54428;SDS011;40337;52.978;6.310;2022-08-19T10:02:34;16.27;;;13.70;;
54428;SDS011;40337;52.978;6.310;2022-08-19T10:05:00;15.43;;;13.82;;
54428;SDS011;40337;52.978;6.310;2022-08-19T10:07:44;15.52;;;14.05;;
54428;SDS011;40337;52.978;6.310;2022-08-19T10:10:10;15.85;;;14.25;;
54428;SDS011;40337;52.978;6.310;2022-08-19T10:12:36;15.50;;;13.98;;
54428;SDS011;40337;52.978;6.310;2022-08-19T10:15:02;15.52;;;13.93;;
54428;SDS011;40337;52.978;6.310;2022-08-19T10:17:31;18.77;;;16.88;;
54428;SDS011;40337;52.978;6.310;2022-08-19T10:19:58;19.90;;;18.08;;
54428;SDS011;40337;52.978;6.310;2022-08-19T10:22:24;19.73;;;17.90;;
54428;SDS011;40337;52.978;6.310;2022-08-19T10:24:50;16.27;;;14.65;;
54428;SDS011;40337;52.978;6.310;2022-08-19T10:27:17;17.05;;;15.45;;
54428;SDS011;40337;52.978;6.310;2022-08-19T10:29:42;14.43;;;12.93;;
54428;SDS011;40337;52.978;6.310;2022-08-19T10:32:08;17.60;;;15.90;;
54428;SDS011;40337;52.978;6.310;2022-08-19T10:34:36;16.42;;;14.75;;
54428;SDS011;40337;52.978;6.310;2022-08-19T10:37:03;14.93;;;13.52;;
54428;SDS011;40337;52.978;6.310;2022-08-19T10:39:33;14.82;;;13.35;;
54428;SDS011;40337;52.978;6.310;2022-08-19T10:42:04;14.82;;;13.45;;
54428;SDS011;40337;52.978;6.310;2022-08-19T10:44:35;13.90;;;12.20;;
54428;SDS011;40337;52.978;6.310;2022-08-19T10:47:01;13.35;;;11.95;;
54428;SDS011;40337;52.978;6.310;2022-08-19T10:49:28;14.60;;;13.20;;
54428;SDS011;40337;52.978;6.310;2022-08-19T10:51:55;14.02;;;12.63;;
54428;SDS011;40337;52.978;6.310;2022-08-19T10:54:39;13.13;;;11.77;;
54428;SDS011;40337;52.978;6.310;2022-08-19T10:57:24;12.32;;;10.75;;
54428;SDS011;40337;52.978;6.310;2022-08-19T10:59:54;11.60;;;10.50;;
54428;SDS011;40337;52.978;6.310;2022-08-19T11:02:20;11.38;;;10.18;;
54428;SDS011;40337;52.978;6.310;2022-08-19T11:04:46;9.95;;;8.95;;
54428;SDS011;40337;52.978;6.310;2022-08-19T11:07:14;9.15;;;7.15;;
54428;SDS011;40337;52.978;6.310;2022-08-19T11:09:40;9.98;;;8.95;;
54428;SDS011;40337;52.978;6.310;2022-08-19T11:12:07;10.10;;;9.10;;
54428;SDS011;40337;52.978;6.310;2022-08-19T11:14:34;10.65;;;9.40;;
54428;SDS011;40337;52.978;6.310;2022-08-19T11:17:01;15.80;;;9.40;;
54428;SDS011;40337;52.978;6.310;2022-08-19T11:19:28;10.43;;;9.05;;
54428;SDS011;40337;52.978;6.310;2022-08-19T11:21:54;9.55;;;8.57;;
54428;SDS011;40337;52.978;6.310;2022-08-19T11:24:20;9.18;;;8.15;;
54428;SDS011;40337;52.978;6.310;2022-08-19T11:26:48;10.45;;;8.65;;
54428;SDS011;40337;52.978;6.310;2022-08-19T11:29:15;12.23;;;7.90;;
54428;SDS011;40337;52.978;6.310;2022-08-19T11:31:43;9.77;;;8.48;;
54428;SDS011;40337;52.978;6.310;2022-08-19T11:34:12;11.55;;;7.90;;
54428;SDS011;40337;52.978;6.310;2022-08-19T11:36:42;10.93;;;7.60;;
54428;SDS011;40337;52.978;6.310;2022-08-19T11:39:09;9.50;;;7.40;;
54428;SDS011;40337;52.978;6.310;2022-08-19T11:41:37;8.77;;;7.35;;
54428;SDS011;40337;52.978;6.310;2022-08-19T11:44:03;13.02;;;9.30;;
54428;SDS011;40337;52.978;6.310;2022-08-19T11:46:30;11.75;;;10.50;;
54428;SDS011;40337;52.978;6.310;2022-08-19T11:48:56;15.63;;;11.50;;
54428;SDS011;40337;52.978;6.310;2022-08-19T11:51:24;12.60;;;11.13;;
54428;SDS011;40337;52.978;6.310;2022-08-19T11:53:51;11.38;;;10.13;;
54428;SDS011;40337;52.978;6.310;2022-08-19T11:56:18;11.40;;;10.10;;
54428;SDS011;40337;52.978;6.310;2022-08-19T11:58:44;12.10;;;10.90;;
54428;SDS011;40337;52.978;6.310;2022-08-19T12:01:11;10.98;;;9.55;;
54428;SDS011;40337;52.978;6.310;2022-08-19T12:03:42;8.15;;;7.30;;
54428;SDS011;40337;52.978;6.310;2022-08-19T12:06:14;7.30;;;6.55;;
54428;SDS011;40337;52.978;6.310;2022-08-19T12:08:43;8.18;;;6.80;;
54428;SDS011;40337;52.978;6.310;2022-08-19T12:11:10;10.02;;;7.85;;
54428;SDS011;40337;52.978;6.310;2022-08-19T12:13:41;10.45;;;9.35;;
54428;SDS011;40337;52.978;6.310;2022-08-19T12:16:18;12.27;;;9.82;;
54428;SDS011;40337;52.978;6.310;2022-08-19T12:18:46;9.07;;;7.32;;
54428;SDS011;40337;52.978;6.310;2022-08-19T12:21:12;11.40;;;8.73;;
54428;SDS011;40337;52.978;6.310;2022-08-19T12:23:40;13.77;;;11.55;;
54428;SDS011;40337;52.978;6.310;2022-08-19T12:26:06;13.32;;;11.07;;
54428;SDS011;40337;52.978;6.310;2022-08-19T12:28:34;13.00;;;11.82;;
54428;SDS011;40337;52.978;6.310;2022-08-19T12:31:00;12.18;;;10.98;;
54428;SDS011;40337;52.978;6.310;2022-08-19T12:33:26;12.55;;;11.32;;
54428;SDS011;40337;52.978;6.310;2022-08-19T12:35:53;13.13;;;11.35;;
54428;SDS011;40337;52.978;6.310;2022-08-19T12:38:19;13.45;;;12.10;;
54428;SDS011;40337;52.978;6.310;2022-08-19T12:40:49;13.90;;;12.40;;
54428;SDS011;40337;52.978;6.310;2022-08-19T12:43:17;13.93;;;12.13;;
54428;SDS011;40337;52.978;6.310;2022-08-19T12:45:44;13.82;;;12.45;;
54428;SDS011;40337;52.978;6.310;2022-08-19T12:48:10;13.73;;;12.40;;
54428;SDS011;40337;52.978;6.310;2022-08-19T12:50:41;14.75;;;13.13;;
54428;SDS011;40337;52.978;6.310;2022-08-19T12:53:07;14.50;;;12.95;;
54428;SDS011;40337;52.978;6.310;2022-08-19T12:55:32;17.05;;;15.35;;
54428;SDS011;40337;52.978;6.310;2022-08-19T12:57:58;18.02;;;16.20;;
54428;SDS011;40337;52.978;6.310;2022-08-19T13:00:26;19.00;;;17.00;;
54428;SDS011;40337;52.978;6.310;2022-08-19T13:02:52;17.13;;;15.48;;
54428;SDS011;40337;52.978;6.310;2022-08-19T13:05:19;18.98;;;16.65;;
54428;SDS011;40337;52.978;6.310;2022-08-19T13:07:48;18.88;;;16.75;;
54428;SDS011;40337;52.978;6.310;2022-08-19T13:10:16;16.70;;;15.00;;
54428;SDS011;40337;52.978;6.310;2022-08-19T13:12:45;16.17;;;14.48;;
54428;SDS011;40337;52.978;6.310;2022-08-19T13:15:13;16.35;;;14.07;;
54428;SDS011;40337;52.978;6.310;2022-08-19T13:17:40;19.75;;;15.38;;
54428;SDS011;40337;52.978;6.310;2022-08-19T13:20:09;18.60;;;15.13;;
54428;SDS011;40337;52.978;6.310;2022-08-19T13:22:36;15.50;;;13.30;;
54428;SDS011;40337;52.978;6.310;2022-08-19T13:25:03;18.40;;;12.70;;
54428;SDS011;40337;52.978;6.310;2022-08-19T13:27:30;17.02;;;11.88;;
54428;SDS011;40337;52.978;6.310;2022-08-19T13:29:56;17.33;;;13.00;;
54428;SDS011;40337;52.978;6.310;2022-08-19T13:32:40;16.70;;;11.52;;
54428;SDS011;40337;52.978;6.310;2022-08-19T13:35:24;20.20;;;12.18;;
54428;SDS011;40337;52.978;6.310;2022-08-19T13:37:50;15.02;;;11.13;;
54428;SDS011;40337;52.978;6.310;2022-08-19T13:40:16;14.18;;;10.85;;
54428;SDS011;40337;52.978;6.310;2022-08-19T13:42:45;13.82;;;10.88;;
54428;SDS011;40337;52.978;6.310;2022-08-19T13:45:12;15.07;;;12.05;;
54428;SDS011;40337;52.978;6.310;2022-08-19T13:47:40;14.55;;;12.20;;
54428;SDS011;40337;52.978;6.310;2022-08-19T13:50:13;12.95;;;10.90;;
54428;SDS011;40337;52.978;6.310;2022-08-19T13:52:41;15.32;;;13.02;;
54428;SDS011;40337;52.978;6.310;2022-08-19T13:55:07;13.68;;;12.25;;
54428;SDS011;40337;52.978;6.310;2022-08-19T13:57:34;14.98;;;13.25;;
54428;SDS011;40337;52.978;6.310;2022-08-19T14:00:00;15.65;;;13.80;;
54428;SDS011;40337;52.978;6.310;2022-08-19T14:02:27;17.15;;;14.30;;
54428;SDS011;40337;52.978;6.310;2022-08-19T14:04:52;19.67;;;15.88;;
54428;SDS011;40337;52.978;6.310;2022-08-19T14:07:18;17.63;;;14.85;;
54428;SDS011;40337;52.978;6.310;2022-08-19T14:09:44;18.42;;;14.52;;
54428;SDS011;40337;52.978;6.310;2022-08-19T14:12:09;15.73;;;14.02;;
54428;SDS011;40337;52.978;6.310;2022-08-19T14:14:36;16.00;;;14.27;;
54428;SDS011;40337;52.978;6.310;2022-08-19T14:17:05;14.52;;;12.80;;
54428;SDS011;40337;52.978;6.310;2022-08-19T14:19:32;13.48;;;11.80;;
54428;SDS011;40337;52.978;6.310;2022-08-19T14:21:58;12.43;;;10.45;;
54428;SDS011;40337;52.978;6.310;2022-08-19T14:24:23;10.80;;;9.57;;
54428;SDS011;40337;52.978;6.310;2022-08-19T14:26:49;8.88;;;6.80;;
54428;SDS011;40337;52.978;6.310;2022-08-19T14:29:15;7.18;;;5.65;;
54428;SDS011;40337;52.978;6.310;2022-08-19T14:31:40;6.82;;;4.72;;
54428;SDS011;40337;52.978;6.310;2022-08-19T14:34:08;6.05;;;4.50;;
54428;SDS011;40337;52.978;6.310;2022-08-19T14:36:35;6.47;;;4.40;;
54428;SDS011;40337;52.978;6.310;2022-08-19T14:39:02;4.32;;;3.28;;
54428;SDS011;40337;52.978;6.310;2022-08-19T14:41:28;5.85;;;2.80;;
54428;SDS011;40337;52.978;6.310;2022-08-19T14:43:55;3.35;;;2.20;;
54428;SDS011;40337;52.978;6.310;2022-08-19T14:46:25;3.00;;;1.80;;
54428;SDS011;40337;52.978;6.310;2022-08-19T14:48:52;2.80;;;1.80;;
54428;SDS011;40337;52.978;6.310;2022-08-19T14:51:18;2.50;;;1.80;;
54428;SDS011;40337;52.978;6.310;2022-08-19T14:53:46;3.20;;;1.88;;
54428;SDS011;40337;52.978;6.310;2022-08-19T14:56:15;4.07;;;2.30;;